Time,TemperatureF,DewpointF,PressureIn,WindDirection,WindDirectionDegrees,WindSpeedMPH,WindSpeedGustMPH,Humidity,HourlyPrecipIn,Conditions,Clouds,dailyrainin,SoftwareType,DateUTC
2013-07-31 00:04:00,60.3,58.9,30.15,WNW,302,0.0,0.0,95,0.00,,,0.00,Wunderground v.1.15,2013-07-31 04:04:00,
2013-07-31 00:09:00,60.2,58.8,30.15,WNW,302,0.0,0.0,95,0.00,,,0.00,Wunderground v.1.15,2013-07-31 04:09:00,
2013-07-31 00:15:00,60.1,58.7,30.15,WNW,302,0.0,0.0,95,0.00,,,0.00,Wunderground v.1.15,2013-07-31 04:15:00,
2013-07-31 00:19:00,60.0,58.6,30.15,WNW,302,0.0,0.0,95,0.00,,,0.00,Wunderground v.1.15,2013-07-31 04:19:00,
2013-07-31 00:24:00,59.9,58.5,30.15,WNW,302,0.0,0.0,95,0.00,,,0.00,Wunderground v.1.15,2013-07-31 04:24:00,
2013-07-31 00:29:00,59.8,58.4,30.15,WNW,302,0.0,0.0,95,0.00,,,0.00,Wunderground v.1.15,2013-07-31 04:29:00,
2013-07-31 00:39:00,59.7,58.3,30.15,WNW,302,0.0,0.0,95,0.00,,,0.00,Wunderground v.1.15,2013-07-31 04:39:00,
2013-07-31 00:44:00,59.6,58.2,30.15,WNW,302,0.0,0.0,95,0.00,,,0.00,Wunderground v.1.15,2013-07-31 04:44:00,
2013-07-31 00:54:00,59.5,58.1,30.14,WNW,302,0.0,0.0,95,0.00,,,0.00,Wunderground v.1.15,2013-07-31 04:54:00,
2013-07-31 00:59:00,59.4,58.0,30.14,WNW,302,0.0,0.0,95,0.00,,,0.00,Wunderground v.1.15,2013-07-31 04:59:00,
2013-07-31 01:09:00,59.2,57.8,30.15,WNW,302,0.0,0.0,95,0.00,,,0.00,Wunderground v.1.15,2013-07-31 05:09:00,
2013-07-31 01:15:00,59.1,58.0,30.15,WNW,302,0.0,0.0,96,0.00,,,0.00,Wunderground v.1.15,2013-07-31 05:15:00,
2013-07-31 01:24:00,58.9,57.5,30.15,WNW,302,0.0,0.0,95,0.00,,,0.00,Wunderground v.1.15,2013-07-31 05:24:00,
2013-07-31 01:30:00,58.9,57.8,30.15,WNW,302,0.0,0.0,96,0.00,,,0.00,Wunderground v.1.15,2013-07-31 05:30:00,
2013-07-31 01:39:00,58.8,57.7,30.15,WNW,302,0.0,0.0,96,0.00,,,0.00,Wunderground v.1.15,2013-07-31 05:39:00,
2013-07-31 01:44:00,58.8,57.7,30.15,WNW,302,0.0,0.0,96,0.00,,,0.00,Wunderground v.1.15,2013-07-31 05:44:00,
2013-07-31 01:54:00,58.6,57.5,30.14,WNW,302,0.0,0.0,96,0.00,,,0.00,Wunderground v.1.15,2013-07-31 05:54:00,
2013-07-31 01:59:00,58.5,57.4,30.15,WNW,302,0.0,0.0,96,0.00,,,0.00,Wunderground v.1.15,2013-07-31 05:59:00,
2013-07-31 02:09:00,58.3,57.2,30.15,WNW,302,0.0,0.0,96,0.00,,,0.00,Wunderground v.1.15,2013-07-31 06:09:00,
2013-07-31 02:14:00,58.2,57.1,30.15,WNW,302,0.0,0.0,96,0.00,,,0.00,Wunderground v.1.15,2013-07-31 06:14:00,
2013-07-31 02:24:00,58.0,56.9,30.15,WNW,302,0.0,0.0,96,0.00,,,0.00,Wunderground v.1.15,2013-07-31 06:24:00,
2013-07-31 02:29:00,58.0,56.9,30.15,WNW,302,0.0,0.0,96,0.00,,,0.00,Wunderground v.1.15,2013-07-31 06:29:00,
2013-07-31 02:39:00,57.9,56.8,30.15,WNW,302,0.0,0.0,96,0.00,,,0.00,Wunderground v.1.15,2013-07-31 06:39:00,
2013-07-31 02:44:00,57.8,56.7,30.15,WNW,302,0.0,0.0,96,0.00,,,0.00,Wunderground v.1.15,2013-07-31 06:44:00,
2013-07-31 02:54:00,57.7,56.6,30.15,WNW,302,0.0,0.0,96,0.00,,,0.00,Wunderground v.1.15,2013-07-31 06:54:00,
2013-07-31 02:59:00,57.6,56.5,30.15,WNW,302,0.0,0.0,96,0.00,,,0.00,Wunderground v.1.15,2013-07-31 06:59:00,
2013-07-31 03:09:00,57.5,56.4,30.15,WNW,302,0.0,0.0,96,0.00,,,0.00,Wunderground v.1.15,2013-07-31 07:09:00,
2013-07-31 03:15:00,57.4,56.3,30.15,WNW,302,0.0,0.0,96,0.00,,,0.00,Wunderground v.1.15,2013-07-31 07:15:00,
2013-07-31 03:24:00,57.3,56.2,30.15,WNW,302,0.0,0.0,96,0.00,,,0.00,Wunderground v.1.15,2013-07-31 07:24:00,
2013-07-31 03:30:00,57.2,56.1,30.15,WNW,302,0.0,0.0,96,0.00,,,0.00,Wunderground v.1.15,2013-07-31 07:30:00,
2013-07-31 03:39:00,57.1,56.0,30.15,WNW,302,0.0,0.0,96,0.00,,,0.00,Wunderground v.1.15,2013-07-31 07:39:00,
2013-07-31 03:44:00,57.0,56.2,30.15,WNW,302,0.0,0.0,97,0.00,,,0.00,Wunderground v.1.15,2013-07-31 07:44:00,
2013-07-31 03:54:00,56.9,56.1,30.15,WNW,302,0.0,0.0,97,0.00,,,0.00,Wunderground v.1.15,2013-07-31 07:54:00,
2013-07-31 03:59:00,56.9,56.1,30.15,WNW,302,0.0,0.0,97,0.00,,,0.00,Wunderground v.1.15,2013-07-31 07:59:00,
2013-07-31 04:09:00,57.1,56.3,30.15,WNW,302,0.0,0.0,97,0.00,,,0.00,Wunderground v.1.15,2013-07-31 08:09:00,
2013-07-31 04:14:00,57.2,56.4,30.15,WNW,302,0.0,0.0,97,0.00,,,0.00,Wunderground v.1.15,2013-07-31 08:14:00,
2013-07-31 04:24:00,57.2,56.4,30.15,WNW,302,0.0,0.0,97,0.00,,,0.00,Wunderground v.1.15,2013-07-31 08:24:00,
2013-07-31 04:30:00,57.1,56.3,30.15,WNW,302,0.0,0.0,97,0.00,,,0.00,Wunderground v.1.15,2013-07-31 08:30:00,
2013-07-31 04:39:00,57.0,56.2,30.15,WNW,302,0.0,0.0,97,0.00,,,0.00,Wunderground v.1.15,2013-07-31 08:39:00,
2013-07-31 04:45:00,56.9,56.1,30.15,WNW,302,0.0,0.0,97,0.00,,,0.00,Wunderground v.1.15,2013-07-31 08:45:00,
2013-07-31 04:54:00,56.8,56.0,30.15,WNW,302,0.0,0.0,97,0.00,,,0.00,Wunderground v.1.15,2013-07-31 08:54:00,
2013-07-31 04:59:00,56.7,55.9,30.15,WNW,302,0.0,0.0,97,0.00,,,0.00,Wunderground v.1.15,2013-07-31 08:59:00,
2013-07-31 05:09:00,56.6,55.8,30.16,WNW,302,0.0,0.0,97,0.00,,,0.00,Wunderground v.1.15,2013-07-31 09:09:00,
2013-07-31 05:14:00,56.6,55.8,30.16,WNW,302,0.0,0.0,97,0.00,,,0.00,Wunderground v.1.15,2013-07-31 09:14:00,
2013-07-31 05:24:00,56.5,55.7,30.16,WNW,302,0.0,0.0,97,0.00,,,0.00,Wunderground v.1.15,2013-07-31 09:24:00,
2013-07-31 05:29:00,56.5,55.7,30.16,WNW,302,0.0,0.0,97,0.00,,,0.00,Wunderground v.1.15,2013-07-31 09:29:00,
2013-07-31 05:39:00,56.4,55.6,30.16,WNW,302,0.0,0.0,97,0.00,,,0.00,Wunderground v.1.15,2013-07-31 09:39:00,
2013-07-31 05:45:00,56.3,55.5,30.16,WNW,302,0.0,0.0,97,0.00,,,0.00,Wunderground v.1.15,2013-07-31 09:45:00,
2013-07-31 05:54:00,56.3,55.5,30.16,WNW,302,0.0,0.0,97,0.00,,,0.00,Wunderground v.1.15,2013-07-31 09:54:00,
2013-07-31 06:00:00,56.1,55.3,30.17,WNW,302,0.0,0.0,97,0.00,,,0.00,Wunderground v.1.15,2013-07-31 10:00:00,
2013-07-31 06:09:00,56.1,55.3,30.17,WNW,302,0.0,0.0,97,0.00,,,0.00,Wunderground v.1.15,2013-07-31 10:09:00,
2013-07-31 06:15:00,56.1,55.3,30.17,WNW,302,0.0,0.0,97,0.00,,,0.00,Wunderground v.1.15,2013-07-31 10:15:00,
2013-07-31 06:24:00,56.2,55.4,30.17,WNW,302,0.0,0.0,97,0.00,,,0.00,Wunderground v.1.15,2013-07-31 10:24:00,
2013-07-31 06:29:00,56.3,55.5,30.17,WNW,302,0.0,0.0,97,0.00,,,0.00,Wunderground v.1.15,2013-07-31 10:29:00,
2013-07-31 06:39:00,56.8,56.2,30.17,WNW,302,0.0,0.0,98,0.00,,,0.00,Wunderground v.1.15,2013-07-31 10:39:00,
2013-07-31 06:44:00,57.0,56.4,30.17,WNW,302,0.0,0.0,98,0.00,,,0.00,Wunderground v.1.15,2013-07-31 10:44:00,
2013-07-31 06:54:00,57.4,56.8,30.17,WNW,302,0.0,0.0,98,0.00,,,0.00,Wunderground v.1.15,2013-07-31 10:54:00,
2013-07-31 06:59:00,57.5,56.9,30.17,WNW,302,0.0,0.0,98,0.00,,,0.00,Wunderground v.1.15,2013-07-31 10:59:00,
2013-07-31 07:09:00,57.8,57.2,30.17,WNW,302,0.0,0.0,98,0.00,,,0.00,Wunderground v.1.15,2013-07-31 11:09:00,
2013-07-31 07:15:00,58.2,57.6,30.17,WNW,302,0.0,0.0,98,0.00,,,0.00,Wunderground v.1.15,2013-07-31 11:15:00,
2013-07-31 07:24:00,58.7,58.1,30.17,WNW,302,0.0,0.0,98,0.00,,,0.00,Wunderground v.1.15,2013-07-31 11:24:00,
2013-07-31 07:30:00,59.0,58.4,30.18,WNW,302,0.0,0.0,98,0.00,,,0.00,Wunderground v.1.15,2013-07-31 11:30:00,
2013-07-31 07:39:00,59.5,58.9,30.17,WNW,302,0.0,0.0,98,0.00,,,0.00,Wunderground v.1.15,2013-07-31 11:39:00,
2013-07-31 07:45:00,59.9,59.3,30.18,WNW,302,0.0,0.0,98,0.00,,,0.00,Wunderground v.1.15,2013-07-31 11:45:00,
2013-07-31 07:54:00,60.4,59.8,30.17,WNW,302,0.0,0.0,98,0.00,,,0.00,Wunderground v.1.15,2013-07-31 11:54:00,
2013-07-31 07:59:00,60.7,59.8,30.17,WNW,302,0.0,0.0,97,0.00,,,0.00,Wunderground v.1.15,2013-07-31 11:59:00,
2013-07-31 08:09:00,61.4,60.5,30.17,WNW,302,0.0,0.0,97,0.00,,,0.00,Wunderground v.1.15,2013-07-31 12:09:00,
2013-07-31 08:14:00,61.7,60.5,30.17,WNW,302,0.0,0.0,96,0.00,,,0.00,Wunderground v.1.15,2013-07-31 12:14:00,
2013-07-31 08:24:00,62.3,60.6,30.17,WNW,302,0.0,1.0,94,0.00,,,0.00,Wunderground v.1.15,2013-07-31 12:24:00,
2013-07-31 08:29:00,62.9,60.8,30.17,WNW,302,0.0,1.0,93,0.00,,,0.00,Wunderground v.1.15,2013-07-31 12:29:00,
2013-07-31 08:39:00,63.5,60.8,30.17,NNE,15,1.0,1.0,91,0.00,,,0.00,Wunderground v.1.15,2013-07-31 12:39:00,
2013-07-31 08:44:00,64.3,61.0,30.17,ENE,61,1.0,1.0,89,0.00,,,0.00,Wunderground v.1.15,2013-07-31 12:44:00,
2013-07-31 08:54:00,65.3,61.3,30.17,ENE,61,1.0,2.0,87,0.00,,,0.00,Wunderground v.1.15,2013-07-31 12:54:00,
2013-07-31 09:00:00,66.2,61.9,30.17,ENE,61,1.0,1.0,86,0.00,,,0.00,Wunderground v.1.15,2013-07-31 13:00:00,
2013-07-31 09:09:00,67.6,62.6,30.17,ENE,63,0.0,0.0,84,0.00,,,0.00,Wunderground v.1.15,2013-07-31 13:09:00,
2013-07-31 09:14:00,68.4,62.7,30.16,ENE,63,1.0,1.0,82,0.00,,,0.00,Wunderground v.1.15,2013-07-31 13:14:00,
2013-07-31 09:24:00,69.6,63.2,30.16,ESE,121,0.0,1.0,80,0.00,,,0.00,Wunderground v.1.15,2013-07-31 13:24:00,
2013-07-31 09:29:00,70.5,64.0,30.16,ENE,70,0.0,1.0,80,0.00,,,0.00,Wunderground v.1.15,2013-07-31 13:29:00,
2013-07-31 09:39:00,71.7,64.1,30.16,ENE,67,0.0,0.0,77,0.00,,,0.00,Wunderground v.1.15,2013-07-31 13:39:00,
2013-07-31 09:44:00,72.0,63.3,30.16,ESE,107,0.0,2.0,74,0.00,,,0.00,Wunderground v.1.15,2013-07-31 13:44:00,
2013-07-31 09:54:00,72.3,62.4,30.16,East,92,0.0,1.0,71,0.00,,,0.00,Wunderground v.1.15,2013-07-31 13:54:00,
2013-07-31 09:59:00,72.9,63.3,30.16,East,92,0.0,2.0,72,0.00,,,0.00,Wunderground v.1.15,2013-07-31 13:59:00,
2013-07-31 10:09:00,73.6,63.2,30.15,East,92,1.0,1.0,70,0.00,,,0.00,Wunderground v.1.15,2013-07-31 14:09:00,
2013-07-31 10:14:00,74.4,64.0,30.15,East,92,1.0,1.0,70,0.00,,,0.00,Wunderground v.1.15,2013-07-31 14:14:00,
2013-07-31 10:24:00,75.5,62.9,30.15,East,92,0.0,1.0,65,0.00,,,0.00,Wunderground v.1.15,2013-07-31 14:24:00,
2013-07-31 10:29:00,75.9,62.8,30.15,East,92,0.0,0.0,64,0.00,,,0.00,Wunderground v.1.15,2013-07-31 14:29:00,
2013-07-31 10:39:00,76.6,64.8,30.15,East,92,1.0,1.0,67,0.00,,,0.00,Wunderground v.1.15,2013-07-31 14:39:00,
2013-07-31 10:48:00,76.5,63.0,30.15,NE,48,1.0,1.0,63,0.00,,,0.00,Wunderground v.1.15,2013-07-31 14:48:00,
2013-07-31 10:54:00,76.9,62.9,30.14,NE,48,1.0,1.0,62,0.00,,,0.00,Wunderground v.1.15,2013-07-31 14:54:00,
2013-07-31 10:59:00,77.2,64.5,30.14,NNW,331,1.0,1.0,65,0.00,,,0.00,Wunderground v.1.15,2013-07-31 14:59:00,
2013-07-31 11:08:00,78.4,62.4,30.14,South,173,0.0,0.0,58,0.00,,,0.00,Wunderground v.1.15,2013-07-31 15:08:00,
2013-07-31 11:14:00,79.0,61.5,30.14,East,82,0.0,1.0,55,0.00,,,0.00,Wunderground v.1.15,2013-07-31 15:14:00,
2013-07-31 11:24:00,80.0,62.4,30.14,NNW,339,0.0,0.0,55,0.00,,,0.00,Wunderground v.1.15,2013-07-31 15:24:00,
2013-07-31 11:29:00,80.2,62.0,30.13,West,275,0.0,0.0,54,0.00,,,0.00,Wunderground v.1.15,2013-07-31 15:29:00,
2013-07-31 11:35:00,80.4,63.3,30.13,West,275,0.0,1.0,56,0.00,,,0.00,Wunderground v.1.15,2013-07-31 15:35:00,
2013-07-31 11:45:00,81.1,62.3,30.13,SSW,205,0.0,0.0,53,0.00,,,0.00,Wunderground v.1.15,2013-07-31 15:45:00,
2013-07-31 11:55:00,80.6,61.3,30.13,SW,236,0.0,0.0,52,0.00,,,0.00,Wunderground v.1.15,2013-07-31 15:55:00,
2013-07-31 12:00:00,80.9,62.2,30.13,NNW,345,0.0,0.0,53,0.00,,,0.00,Wunderground v.1.15,2013-07-31 16:00:00,
2013-07-31 12:10:00,82.6,63.2,30.13,North,5,0.0,2.0,52,0.00,,,0.00,Wunderground v.1.15,2013-07-31 16:10:00,
2013-07-31 12:15:00,83.6,63.0,30.12,SE,131,1.0,2.0,50,0.00,,,0.00,Wunderground v.1.15,2013-07-31 16:15:00,
2013-07-31 12:25:00,83.5,62.3,30.12,South,186,1.0,1.0,49,0.00,,,0.00,Wunderground v.1.15,2013-07-31 16:25:00,
2013-07-31 12:30:00,82.7,61.6,30.12,ENE,69,1.0,1.0,49,0.00,,,0.00,Wunderground v.1.15,2013-07-31 16:30:00,
2013-07-31 12:40:00,82.0,63.2,30.12,East,82,0.0,0.0,53,0.00,,,0.00,Wunderground v.1.15,2013-07-31 16:40:00,
2013-07-31 12:46:00,81.8,61.9,30.11,South,185,0.0,0.0,51,0.00,,,0.00,Wunderground v.1.15,2013-07-31 16:46:00,
2013-07-31 12:55:00,81.5,63.3,30.11,ENE,73,0.0,2.0,54,0.00,,,0.00,Wunderground v.1.15,2013-07-31 16:55:00,
2013-07-31 13:00:00,82.1,63.8,30.11,South,190,0.0,0.0,54,0.00,,,0.00,Wunderground v.1.15,2013-07-31 17:00:00,
2013-07-31 13:09:00,83.0,63.0,30.10,NE,49,1.0,1.0,51,0.00,,,0.00,Wunderground v.1.15,2013-07-31 17:09:00,
2013-07-31 13:15:00,83.4,63.4,30.10,South,182,1.0,1.0,51,0.00,,,0.00,Wunderground v.1.15,2013-07-31 17:15:00,
2013-07-31 13:25:00,83.8,61.4,30.10,WSW,237,1.0,2.0,47,0.00,,,0.00,Wunderground v.1.15,2013-07-31 17:25:00,
2013-07-31 13:30:00,83.2,62.1,30.10,WNW,298,1.0,1.0,49,0.00,,,0.00,Wunderground v.1.15,2013-07-31 17:30:00,
2013-07-31 13:40:00,84.7,63.4,30.10,East,94,0.0,0.0,49,0.00,,,0.00,Wunderground v.1.15,2013-07-31 17:40:00,
2013-07-31 13:45:00,85.0,62.5,30.10,SSW,213,0.0,3.0,47,0.00,,,0.00,Wunderground v.1.15,2013-07-31 17:45:00,
2013-07-31 13:55:00,83.8,62.6,30.09,NW,317,1.0,1.0,49,0.00,,,0.00,Wunderground v.1.15,2013-07-31 17:55:00,
2013-07-31 14:00:00,83.4,62.8,30.09,North,9,1.0,1.0,50,0.00,,,0.00,Wunderground v.1.15,2013-07-31 18:00:00,
2013-07-31 14:10:00,82.3,61.8,30.09,West,263,1.0,1.0,50,0.00,,,0.00,Wunderground v.1.15,2013-07-31 18:10:00,
2013-07-31 14:15:00,82.2,62.3,30.09,North,351,1.0,1.0,51,0.00,,,0.00,Wunderground v.1.15,2013-07-31 18:15:00,
2013-07-31 14:25:00,82.8,63.4,30.09,South,184,1.0,3.0,52,0.00,,,0.00,Wunderground v.1.15,2013-07-31 18:25:00,
2013-07-31 14:30:00,83.5,63.5,30.08,South,169,1.0,1.0,51,0.00,,,0.00,Wunderground v.1.15,2013-07-31 18:30:00,
2013-07-31 14:39:00,83.8,63.2,30.08,WSW,237,0.0,0.0,50,0.00,,,0.00,Wunderground v.1.15,2013-07-31 18:39:00,
2013-07-31 14:45:00,83.3,62.7,30.08,SW,230,1.0,1.0,50,0.00,,,0.00,Wunderground v.1.15,2013-07-31 18:45:00,
2013-07-31 14:54:00,83.0,63.0,30.07,ENE,71,0.0,1.0,51,0.00,,,0.00,Wunderground v.1.15,2013-07-31 18:54:00,
2013-07-31 15:00:00,82.8,62.8,30.07,SW,225,0.0,2.0,51,0.00,,,0.00,Wunderground v.1.15,2013-07-31 19:00:00,
2013-07-31 15:09:00,82.0,62.6,30.07,SW,217,0.0,2.0,52,0.00,,,0.00,Wunderground v.1.15,2013-07-31 19:09:00,
2013-07-31 15:15:00,81.2,63.5,30.07,SW,219,1.0,2.0,55,0.00,,,0.00,Wunderground v.1.15,2013-07-31 19:15:00,
2013-07-31 15:24:00,81.1,63.9,30.07,SSW,200,0.0,1.0,56,0.00,,,0.00,Wunderground v.1.15,2013-07-31 19:24:00,
2013-07-31 15:30:00,81.1,63.9,30.07,ENE,76,0.0,1.0,56,0.00,,,0.00,Wunderground v.1.15,2013-07-31 19:30:00,
2013-07-31 15:39:00,81.2,63.5,30.06,SSW,212,1.0,1.0,55,0.00,,,0.00,Wunderground v.1.15,2013-07-31 19:39:00,
2013-07-31 15:45:00,80.8,63.1,30.06,SSE,157,1.0,1.0,55,0.00,,,0.00,Wunderground v.1.15,2013-07-31 19:45:00,
2013-07-31 15:54:00,80.5,63.4,30.06,South,187,1.0,1.0,56,0.00,,,0.00,Wunderground v.1.15,2013-07-31 19:54:00,
2013-07-31 16:00:00,80.5,64.9,30.06,NE,49,1.0,1.0,59,0.00,,,0.00,Wunderground v.1.15,2013-07-31 20:00:00,
2013-07-31 16:10:00,80.4,63.8,30.05,NNE,32,0.0,0.0,57,0.00,,,0.00,Wunderground v.1.15,2013-07-31 20:10:00,
2013-07-31 16:15:00,80.3,64.2,30.05,NNE,33,0.0,0.0,58,0.00,,,0.00,Wunderground v.1.15,2013-07-31 20:15:00,
2013-07-31 16:25:00,80.2,63.6,30.05,NNE,33,0.0,1.0,57,0.00,,,0.00,Wunderground v.1.15,2013-07-31 20:25:00,
2013-07-31 16:30:00,80.1,64.0,30.05,NNE,33,0.0,0.0,58,0.00,,,0.00,Wunderground v.1.15,2013-07-31 20:30:00,
2013-07-31 16:39:00,80.3,64.2,30.05,NE,46,0.0,0.0,58,0.00,,,0.00,Wunderground v.1.15,2013-07-31 20:39:00,
2013-07-31 16:45:00,80.6,64.5,30.05,SSE,150,0.0,0.0,58,0.00,,,0.00,Wunderground v.1.15,2013-07-31 20:45:00,
2013-07-31 16:54:00,80.4,63.3,30.04,NE,54,0.0,3.0,56,0.00,,,0.00,Wunderground v.1.15,2013-07-31 20:54:00,
2013-07-31 17:00:00,80.3,63.7,30.05,SSE,165,0.0,1.0,57,0.00,,,0.00,Wunderground v.1.15,2013-07-31 21:00:00,
2013-07-31 17:09:00,80.0,63.4,30.05,East,86,0.0,0.0,57,0.00,,,0.00,Wunderground v.1.15,2013-07-31 21:09:00,
2013-07-31 17:15:00,80.0,62.9,30.04,NE,51,0.0,0.0,56,0.00,,,0.00,Wunderground v.1.15,2013-07-31 21:15:00,
2013-07-31 17:24:00,79.9,63.3,30.04,NNW,340,0.0,2.0,57,0.00,,,0.00,Wunderground v.1.15,2013-07-31 21:24:00,
2013-07-31 17:34:00,79.9,64.8,30.04,NNW,340,0.0,0.0,60,0.00,,,0.00,Wunderground v.1.15,2013-07-31 21:34:00,
2013-07-31 17:39:00,79.9,64.3,30.04,WNW,296,0.0,0.0,59,0.00,,,0.00,Wunderground v.1.15,2013-07-31 21:39:00,
2013-07-31 17:45:00,79.8,63.7,30.04,WNW,296,0.0,0.0,58,0.00,,,0.00,Wunderground v.1.15,2013-07-31 21:45:00,
2013-07-31 17:55:00,79.9,63.8,30.04,NNE,31,0.0,0.0,58,0.00,,,0.00,Wunderground v.1.15,2013-07-31 21:55:00,
2013-07-31 18:00:00,79.6,64.0,30.03,ENE,63,0.0,1.0,59,0.00,,,0.00,Wunderground v.1.15,2013-07-31 22:00:00,
2013-07-31 18:09:00,79.6,64.0,30.03,NW,311,0.0,0.0,59,0.00,,,0.00,Wunderground v.1.15,2013-07-31 22:09:00,
2013-07-31 18:15:00,79.7,64.1,30.03,WSW,248,0.0,0.0,59,0.00,,,0.00,Wunderground v.1.15,2013-07-31 22:15:00,
2013-07-31 18:24:00,79.9,64.3,30.03,WSW,248,0.0,0.0,59,0.00,,,0.00,Wunderground v.1.15,2013-07-31 22:24:00,
2013-07-31 18:30:00,79.7,64.6,30.03,WSW,248,0.0,0.0,60,0.00,,,0.00,Wunderground v.1.15,2013-07-31 22:30:00,
2013-07-31 18:39:00,79.6,65.0,30.03,WSW,248,0.0,0.0,61,0.00,,,0.00,Wunderground v.1.15,2013-07-31 22:39:00,
2013-07-31 18:45:00,79.3,64.7,30.03,WSW,254,0.0,0.0,61,0.00,,,0.00,Wunderground v.1.15,2013-07-31 22:45:00,
2013-07-31 18:54:00,79.0,64.9,30.03,WSW,254,0.0,0.0,62,0.00,,,0.00,Wunderground v.1.15,2013-07-31 22:54:00,
2013-07-31 19:00:00,78.9,65.2,30.03,NNW,333,0.0,0.0,63,0.00,,,0.00,Wunderground v.1.15,2013-07-31 23:00:00,
2013-07-31 19:09:00,78.3,64.7,30.03,NW,326,0.0,0.0,63,0.00,,,0.00,Wunderground v.1.15,2013-07-31 23:09:00,
2013-07-31 19:15:00,78.0,65.3,30.02,NW,326,0.0,0.0,65,0.00,,,0.00,Wunderground v.1.15,2013-07-31 23:15:00,
2013-07-31 19:25:00,77.4,65.1,30.02,NW,326,0.0,0.0,66,0.00,,,0.00,Wunderground v.1.15,2013-07-31 23:25:00,
2013-07-31 19:30:00,77.0,65.2,30.02,NW,323,0.0,0.0,67,0.00,,,0.00,Wunderground v.1.15,2013-07-31 23:30:00,
2013-07-31 19:39:00,76.5,64.7,30.02,NNW,330,0.0,0.0,67,0.00,,,0.00,Wunderground v.1.15,2013-07-31 23:39:00,
2013-07-31 19:45:00,76.2,64.0,30.02,NNW,330,0.0,0.0,66,0.00,,,0.00,Wunderground v.1.15,2013-07-31 23:45:00,
2013-07-31 19:54:00,75.8,64.1,30.02,NNW,330,0.0,0.0,67,0.00,,,0.00,Wunderground v.1.15,2013-07-31 23:54:00,
2013-07-31 20:00:00,75.7,64.8,30.02,NNW,330,0.0,0.0,69,0.00,,,0.00,Wunderground v.1.15,2013-08-01 00:00:00,
2013-07-31 20:09:00,75.2,64.3,30.02,NNW,330,0.0,0.0,69,0.00,,,0.00,Wunderground v.1.15,2013-08-01 00:09:00,
2013-07-31 20:15:00,74.9,64.5,30.01,NNW,330,0.0,0.0,70,0.00,,,0.00,Wunderground v.1.15,2013-08-01 00:15:00,
2013-07-31 20:24:00,74.2,63.8,30.02,NNW,330,0.0,0.0,70,0.00,,,0.00,Wunderground v.1.15,2013-08-01 00:24:00,
2013-07-31 20:30:00,73.9,63.9,30.02,NNW,330,0.0,0.0,71,0.00,,,0.00,Wunderground v.1.15,2013-08-01 00:30:00,
2013-07-31 20:39:00,73.4,64.2,30.02,NNW,330,0.0,0.0,73,0.00,,,0.00,Wunderground v.1.15,2013-08-01 00:39:00,
2013-07-31 20:45:00,73.1,64.3,30.02,NNW,330,0.0,0.0,74,0.00,,,0.00,Wunderground v.1.15,2013-08-01 00:45:00,
2013-07-31 20:54:00,72.4,65.2,30.02,NNW,330,0.0,0.0,78,0.00,,,0.00,Wunderground v.1.15,2013-08-01 00:54:00,
2013-07-31 21:00:00,71.6,64.4,30.02,NNW,330,0.0,0.0,78,0.00,,,0.00,Wunderground v.1.15,2013-08-01 01:00:00,
2013-07-31 21:09:00,70.7,64.6,30.02,NNW,330,0.0,0.0,81,0.00,,,0.00,Wunderground v.1.15,2013-08-01 01:09:00,
2013-07-31 21:15:00,70.2,64.4,30.02,NNW,330,0.0,0.0,82,0.00,,,0.00,Wunderground v.1.15,2013-08-01 01:15:00,
2013-07-31 21:24:00,69.3,64.3,30.02,NNW,330,0.0,0.0,84,0.00,,,0.00,Wunderground v.1.15,2013-08-01 01:24:00,
2013-07-31 21:30:00,68.9,64.2,30.02,NNW,330,0.0,0.0,85,0.00,,,0.00,Wunderground v.1.15,2013-08-01 01:30:00,
2013-07-31 21:39:00,68.5,64.1,30.02,NNW,330,0.0,0.0,86,0.00,,,0.00,Wunderground v.1.15,2013-08-01 01:39:00,
2013-07-31 21:45:00,68.3,63.9,30.02,NNW,330,0.0,0.0,86,0.00,,,0.00,Wunderground v.1.15,2013-08-01 01:45:00,
2013-07-31 21:54:00,68.0,64.0,30.02,NNW,330,0.0,0.0,87,0.00,,,0.00,Wunderground v.1.15,2013-08-01 01:54:00,
2013-07-31 22:04:00,67.7,64.0,30.02,NNW,330,0.0,0.0,88,0.00,,,0.00,Wunderground v.1.15,2013-08-01 02:04:00,
2013-07-31 22:09:00,67.6,63.9,30.02,NNW,330,0.0,0.0,88,0.00,,,0.00,Wunderground v.1.15,2013-08-01 02:09:00,
2013-07-31 22:15:00,67.4,64.0,30.02,NNW,330,0.0,0.0,89,0.00,,,0.00,Wunderground v.1.15,2013-08-01 02:15:00,
2013-07-31 22:24:00,67.0,63.6,30.02,NNW,330,0.0,0.0,89,0.00,,,0.00,Wunderground v.1.15,2013-08-01 02:24:00,
2013-07-31 22:30:00,66.8,63.5,30.03,NNW,330,0.0,0.0,89,0.00,,,0.00,Wunderground v.1.15,2013-08-01 02:30:00,
2013-07-31 22:39:00,66.6,63.6,30.03,NNW,330,0.0,0.0,90,0.00,,,0.00,Wunderground v.1.15,2013-08-01 02:39:00,
2013-07-31 22:45:00,66.6,63.6,30.02,NNW,330,0.0,0.0,90,0.00,,,0.00,Wunderground v.1.15,2013-08-01 02:45:00,
2013-07-31 22:54:00,66.6,63.6,30.03,NNW,330,0.0,0.0,90,0.00,,,0.00,Wunderground v.1.15,2013-08-01 02:54:00,
2013-07-31 23:00:00,66.5,63.5,30.03,NNW,330,0.0,0.0,90,0.00,,,0.00,Wunderground v.1.15,2013-08-01 03:00:00,
2013-07-31 23:10:00,66.5,63.5,30.02,NNW,330,0.0,0.0,90,0.00,,,0.00,Wunderground v.1.15,2013-08-01 03:10:00,
2013-07-31 23:15:00,66.4,63.7,30.02,NNW,330,0.0,0.0,91,0.00,,,0.00,Wunderground v.1.15,2013-08-01 03:15:00,
2013-07-31 23:24:00,66.3,63.6,30.02,NNW,330,0.0,0.0,91,0.00,,,0.00,Wunderground v.1.15,2013-08-01 03:24:00,
2013-07-31 23:30:00,66.3,63.6,30.02,NNW,330,0.0,0.0,91,0.00,,,0.00,Wunderground v.1.15,2013-08-01 03:30:00,
2013-07-31 23:39:00,66.2,63.5,30.02,NNW,330,0.0,0.0,91,0.00,,,0.00,Wunderground v.1.15,2013-08-01 03:39:00,
2013-07-31 23:49:00,66.2,63.8,30.02,NNW,330,0.0,0.0,92,0.00,,,0.00,Wunderground v.1.15,2013-08-01 03:49:00,
2013-07-31 23:54:00,66.1,63.7,30.02,NNW,330,0.0,0.0,92,0.00,,,0.00,Wunderground v.1.15,2013-08-01 03:54:00,